sensor_id;sensor_type;location;lat;lon;timestamp;P1;durP1;ratioP1;P2;durP2;ratioP2
72929;SDS011;61073;54.260;20.816;2023-10-13T11:38:16;6.80;;;1.77;;
72929;SDS011;61073;54.260;20.816;2023-10-13T11:41:01;9.07;;;2.22;;
72929;SDS011;61073;54.260;20.816;2023-10-13T11:43:38;10.83;;;2.47;;
72929;SDS011;61073;54.260;20.816;2023-10-13T11:46:13;7.40;;;2.03;;
72929;SDS011;61073;54.260;20.816;2023-10-13T11:48:56;8.57;;;2.47;;
72929;SDS011;61073;54.260;20.816;2023-10-13T11:51:31;9.50;;;2.70;;
72929;SDS011;61073;54.260;20.816;2023-10-13T11:53:58;12.68;;;2.83;;
72929;SDS011;61073;54.260;20.816;2023-10-13T11:56:25;10.93;;;2.95;;
72929;SDS011;61073;54.260;20.816;2023-10-13T11:58:52;7.10;;;2.45;;
72929;SDS011;61073;54.260;20.816;2023-10-13T12:01:19;7.97;;;2.58;;
72929;SDS011;61073;54.260;20.816;2023-10-13T12:03:47;6.18;;;2.20;;
72929;SDS011;61073;54.260;20.816;2023-10-13T12:06:32;8.43;;;2.67;;
72929;SDS011;61073;54.260;20.816;2023-10-13T12:08:59;8.73;;;2.60;;
72929;SDS011;61073;54.260;20.816;2023-10-13T12:11:40;4.45;;;2.00;;
72929;SDS011;61073;54.260;20.816;2023-10-13T12:14:08;5.10;;;2.20;;
72929;SDS011;61073;54.260;20.816;2023-10-13T12:16:51;6.40;;;2.17;;
72929;SDS011;61073;54.260;20.816;2023-10-13T12:19:24;10.80;;;2.80;;
72929;SDS011;61073;54.260;20.816;2023-10-13T12:21:53;16.02;;;3.40;;
72929;SDS011;61073;54.260;20.816;2023-10-13T12:24:24;8.57;;;2.95;;
72929;SDS011;61073;54.260;20.816;2023-10-13T12:27:06;6.95;;;2.75;;
72929;SDS011;61073;54.260;20.816;2023-10-13T12:29:50;7.65;;;2.75;;
72929;SDS011;61073;54.260;20.816;2023-10-13T12:32:18;8.20;;;2.43;;
72929;SDS011;61073;54.260;20.816;2023-10-13T12:34:50;7.13;;;2.00;;
72929;SDS011;61073;54.260;20.816;2023-10-13T12:37:42;9.90;;;2.80;;
72929;SDS011;61073;54.260;20.816;2023-10-13T12:40:11;7.60;;;2.70;;
72929;SDS011;61073;54.260;20.816;2023-10-13T12:42:54;8.05;;;2.70;;
72929;SDS011;61073;54.260;20.816;2023-10-13T12:45:39;12.10;;;2.13;;
72929;SDS011;61073;54.260;20.816;2023-10-13T12:48:22;9.07;;;2.50;;
72929;SDS011;61073;54.260;20.816;2023-10-13T12:51:05;10.20;;;2.90;;
72929;SDS011;61073;54.260;20.816;2023-10-13T12:53:48;8.65;;;2.70;;
72929;SDS011;61073;54.260;20.816;2023-10-13T12:56:16;11.47;;;2.97;;
72929;SDS011;61073;54.260;20.816;2023-10-13T12:58:43;8.18;;;2.58;;
72929;SDS011;61073;54.260;20.816;2023-10-13T13:01:21;9.38;;;3.03;;
72929;SDS011;61073;54.260;20.816;2023-10-13T13:03:49;9.57;;;3.60;;
72929;SDS011;61073;54.260;20.816;2023-10-13T13:06:19;9.93;;;3.83;;
72929;SDS011;61073;54.260;20.816;2023-10-13T13:08:56;10.95;;;4.78;;
72929;SDS011;61073;54.260;20.816;2023-10-13T13:11:23;33.13;;;12.32;;
72929;SDS011;61073;54.260;20.816;2023-10-13T13:13:52;6.18;;;2.20;;
72929;SDS011;61073;54.260;20.816;2023-10-13T13:16:19;8.70;;;2.50;;
72929;SDS011;61073;54.260;20.816;2023-10-13T13:18:50;9.48;;;2.40;;
72929;SDS011;61073;54.260;20.816;2023-10-13T13:21:17;4.90;;;2.47;;
72929;SDS011;61073;54.260;20.816;2023-10-13T13:23:49;6.28;;;2.22;;
72929;SDS011;61073;54.260;20.816;2023-10-13T13:26:16;8.18;;;2.40;;
72929;SDS011;61073;54.260;20.816;2023-10-13T13:28:44;8.23;;;2.73;;
72929;SDS011;61073;54.260;20.816;2023-10-13T13:31:11;7.82;;;2.40;;
72929;SDS011;61073;54.260;20.816;2023-10-13T13:33:38;7.00;;;2.37;;
72929;SDS011;61073;54.260;20.816;2023-10-13T13:36:09;5.30;;;2.38;;
72929;SDS011;61073;54.260;20.816;2023-10-13T13:38:43;6.72;;;1.98;;
72929;SDS011;61073;54.260;20.816;2023-10-13T13:41:16;7.87;;;2.00;;
72929;SDS011;61073;54.260;20.816;2023-10-13T13:43:44;8.90;;;2.30;;
72929;SDS011;61073;54.260;20.816;2023-10-13T13:46:27;7.53;;;2.30;;
72929;SDS011;61073;54.260;20.816;2023-10-13T13:48:59;6.38;;;1.80;;
72929;SDS011;61073;54.260;20.816;2023-10-13T13:51:33;5.40;;;2.00;;
72929;SDS011;61073;54.260;20.816;2023-10-13T13:54:04;6.15;;;1.83;;
72929;SDS011;61073;54.260;20.816;2023-10-13T13:56:33;6.18;;;1.92;;
72929;SDS011;61073;54.260;20.816;2023-10-13T13:59:06;6.63;;;1.90;;
72929;SDS011;61073;54.260;20.816;2023-10-13T14:01:37;8.05;;;2.10;;
72929;SDS011;61073;54.260;20.816;2023-10-13T14:04:06;8.25;;;2.65;;
72929;SDS011;61073;54.260;20.816;2023-10-13T14:06:33;8.85;;;3.63;;
72929;SDS011;61073;54.260;20.816;2023-10-13T14:09:00;9.10;;;3.30;;
72929;SDS011;61073;54.260;20.816;2023-10-13T14:11:43;13.13;;;2.83;;
72929;SDS011;61073;54.260;20.816;2023-10-13T14:14:26;13.68;;;2.60;;
72929;SDS011;61073;54.260;20.816;2023-10-13T14:16:54;23.10;;;2.78;;
72929;SDS011;61073;54.260;20.816;2023-10-13T14:19:37;5.75;;;2.15;;
72929;SDS011;61073;54.260;20.816;2023-10-13T14:22:08;9.02;;;2.35;;
72929;SDS011;61073;54.260;20.816;2023-10-13T14:24:38;5.93;;;2.47;;
72929;SDS011;61073;54.260;20.816;2023-10-13T14:27:17;7.30;;;2.70;;
72929;SDS011;61073;54.260;20.816;2023-10-13T14:29:45;8.38;;;2.95;;
72929;SDS011;61073;54.260;20.816;2023-10-13T14:32:13;8.32;;;2.80;;
72929;SDS011;61073;54.260;20.816;2023-10-13T14:34:44;6.78;;;3.10;;
72929;SDS011;61073;54.260;20.816;2023-10-13T14:37:12;9.77;;;3.50;;
72929;SDS011;61073;54.260;20.816;2023-10-13T14:39:39;10.98;;;4.07;;
72929;SDS011;61073;54.260;20.816;2023-10-13T14:42:08;10.87;;;4.50;;
72929;SDS011;61073;54.260;20.816;2023-10-13T14:44:35;12.45;;;4.28;;
72929;SDS011;61073;54.260;20.816;2023-10-13T14:47:03;13.88;;;4.45;;
72929;SDS011;61073;54.260;20.816;2023-10-13T14:49:34;12.10;;;4.45;;
72929;SDS011;61073;54.260;20.816;2023-10-13T14:52:02;12.82;;;5.05;;
72929;SDS011;61073;54.260;20.816;2023-10-13T14:54:29;10.20;;;4.85;;
72929;SDS011;61073;54.260;20.816;2023-10-13T14:56:59;11.52;;;5.35;;
72929;SDS011;61073;54.260;20.816;2023-10-13T14:59:26;12.13;;;5.43;;
72929;SDS011;61073;54.260;20.816;2023-10-13T15:01:53;16.95;;;5.60;;
72929;SDS011;61073;54.260;20.816;2023-10-13T15:04:21;13.10;;;5.47;;
72929;SDS011;61073;54.260;20.816;2023-10-13T15:06:51;11.95;;;5.18;;
72929;SDS011;61073;54.260;20.816;2023-10-13T15:09:18;13.48;;;5.40;;
72929;SDS011;61073;54.260;20.816;2023-10-13T15:11:49;10.88;;;5.03;;
72929;SDS011;61073;54.260;20.816;2023-10-13T15:14:20;12.10;;;5.50;;
72929;SDS011;61073;54.260;20.816;2023-10-13T15:16:49;13.65;;;5.78;;
72929;SDS011;61073;54.260;20.816;2023-10-13T15:19:18;14.90;;;6.00;;
72929;SDS011;61073;54.260;20.816;2023-10-13T15:21:45;16.00;;;6.50;;
72929;SDS011;61073;54.260;20.816;2023-10-13T15:24:16;16.42;;;6.47;;
72929;SDS011;61073;54.260;20.816;2023-10-13T15:26:46;15.60;;;6.70;;
72929;SDS011;61073;54.260;20.816;2023-10-13T15:29:17;17.13;;;6.65;;
72929;SDS011;61073;54.260;20.816;2023-10-13T15:31:44;16.15;;;7.07;;
72929;SDS011;61073;54.260;20.816;2023-10-13T15:34:27;16.93;;;7.60;;
72929;SDS011;61073;54.260;20.816;2023-10-13T15:36:55;15.93;;;7.28;;
72929;SDS011;61073;54.260;20.816;2023-10-13T15:39:22;18.50;;;7.50;;
72929;SDS011;61073;54.260;20.816;2023-10-13T15:41:52;14.52;;;6.88;;
72929;SDS011;61073;54.260;20.816;2023-10-13T15:44:20;19.08;;;7.68;;
72929;SDS011;61073;54.260;20.816;2023-10-13T15:46:52;17.13;;;8.15;;
72929;SDS011;61073;54.260;20.816;2023-10-13T15:49:22;18.95;;;8.63;;
72929;SDS011;61073;54.260;20.816;2023-10-13T15:51:49;17.88;;;8.88;;
72929;SDS011;61073;54.260;20.816;2023-10-13T15:54:16;20.63;;;8.40;;
72929;SDS011;61073;54.260;20.816;2023-10-13T15:56:47;17.73;;;8.35;;
72929;SDS011;61073;54.260;20.816;2023-10-13T15:59:15;19.50;;;7.80;;
72929;SDS011;61073;54.260;20.816;2023-10-13T16:01:42;16.20;;;7.38;;
72929;SDS011;61073;54.260;20.816;2023-10-13T16:04:12;16.65;;;7.85;;
72929;SDS011;61073;54.260;20.816;2023-10-13T16:06:45;14.47;;;7.50;;
72929;SDS011;61073;54.260;20.816;2023-10-13T16:09:13;15.57;;;7.95;;
72929;SDS011;61073;54.260;20.816;2023-10-13T16:11:43;15.87;;;7.50;;
72929;SDS011;61073;54.260;20.816;2023-10-13T16:14:12;18.20;;;8.57;;
72929;SDS011;61073;54.260;20.816;2023-10-13T16:16:43;20.13;;;9.18;;
72929;SDS011;61073;54.260;20.816;2023-10-13T16:19:14;19.98;;;9.15;;
72929;SDS011;61073;54.260;20.816;2023-10-13T16:21:46;21.63;;;10.10;;
72929;SDS011;61073;54.260;20.816;2023-10-13T16:24:13;24.00;;;10.82;;
72929;SDS011;61073;54.260;20.816;2023-10-13T16:26:44;26.38;;;11.23;;
72929;SDS011;61073;54.260;20.816;2023-10-13T16:29:11;20.92;;;11.13;;
72929;SDS011;61073;54.260;20.816;2023-10-13T16:31:40;20.27;;;11.40;;
72929;SDS011;61073;54.260;20.816;2023-10-13T16:34:12;30.55;;;12.70;;
72929;SDS011;61073;54.260;20.816;2023-10-13T16:36:44;25.88;;;13.00;;
72929;SDS011;61073;54.260;20.816;2023-10-13T16:39:15;24.80;;;12.80;;
72929;SDS011;61073;54.260;20.816;2023-10-13T16:41:43;27.40;;;12.43;;
72929;SDS011;61073;54.260;20.816;2023-10-13T16:44:13;24.33;;;11.70;;
72929;SDS011;61073;54.260;20.816;2023-10-13T16:46:41;21.83;;;11.88;;
72929;SDS011;61073;54.260;20.816;2023-10-13T16:49:09;26.17;;;12.03;;
72929;SDS011;61073;54.260;20.816;2023-10-13T16:51:37;21.35;;;11.20;;
72929;SDS011;61073;54.260;20.816;2023-10-13T16:54:04;28.30;;;12.25;;
72929;SDS011;61073;54.260;20.816;2023-10-13T16:56:33;20.92;;;11.55;;
72929;SDS011;61073;54.260;20.816;2023-10-13T16:59:02;23.25;;;11.00;;
72929;SDS011;61073;54.260;20.816;2023-10-13T17:01:31;21.93;;;10.90;;
72929;SDS011;61073;54.260;20.816;2023-10-13T17:03:58;26.85;;;11.88;;
72929;SDS011;61073;54.260;20.816;2023-10-13T17:06:25;24.48;;;11.85;;
72929;SDS011;61073;54.260;20.816;2023-10-13T17:08:53;26.92;;;12.45;;
72929;SDS011;61073;54.260;20.816;2023-10-13T17:11:20;29.20;;;12.18;;
72929;SDS011;61073;54.260;20.816;2023-10-13T17:13:47;24.70;;;12.10;;
72929;SDS011;61073;54.260;20.816;2023-10-13T17:16:18;26.63;;;11.73;;
72929;SDS011;61073;54.260;20.816;2023-10-13T17:18:45;23.55;;;11.20;;
72929;SDS011;61073;54.260;20.816;2023-10-13T17:21:22;25.93;;;11.43;;
72929;SDS011;61073;54.260;20.816;2023-10-13T17:23:57;22.40;;;11.77;;
72929;SDS011;61073;54.260;20.816;2023-10-13T17:26:27;23.45;;;11.52;;
72929;SDS011;61073;54.260;20.816;2023-10-13T17:28:54;22.02;;;11.45;;
72929;SDS011;61073;54.260;20.816;2023-10-13T17:31:24;23.45;;;11.50;;
72929;SDS011;61073;54.260;20.816;2023-10-13T17:33:53;26.67;;;11.83;;
72929;SDS011;61073;54.260;20.816;2023-10-13T17:36:24;23.05;;;11.98;;
72929;SDS011;61073;54.260;20.816;2023-10-13T17:38:55;23.60;;;11.70;;
72929;SDS011;61073;54.260;20.816;2023-10-13T17:41:22;24.23;;;11.15;;
72929;SDS011;61073;54.260;20.816;2023-10-13T17:43:49;24.27;;;11.40;;
72929;SDS011;61073;54.260;20.816;2023-10-13T17:46:16;26.67;;;12.70;;
72929;SDS011;61073;54.260;20.816;2023-10-13T17:48:46;22.70;;;12.02;;
72929;SDS011;61073;54.260;20.816;2023-10-13T17:51:13;25.57;;;11.73;;
72929;SDS011;61073;54.260;20.816;2023-10-13T17:53:40;23.23;;;11.38;;
72929;SDS011;61073;54.260;20.816;2023-10-13T17:56:10;24.77;;;11.77;;
72929;SDS011;61073;54.260;20.816;2023-10-13T17:58:38;22.73;;;12.05;;
72929;SDS011;61073;54.260;20.816;2023-10-13T18:01:07;23.60;;;12.00;;
72929;SDS011;61073;54.260;20.816;2023-10-13T18:03:34;25.33;;;11.65;;
72929;SDS011;61073;54.260;20.816;2023-10-13T18:06:05;23.33;;;11.75;;
72929;SDS011;61073;54.260;20.816;2023-10-13T18:08:36;24.08;;;11.98;;
72929;SDS011;61073;54.260;20.816;2023-10-13T18:11:04;26.92;;;11.95;;
72929;SDS011;61073;54.260;20.816;2023-10-13T18:13:32;25.70;;;11.80;;
72929;SDS011;61073;54.260;20.816;2023-10-13T18:16:00;22.92;;;11.38;;
72929;SDS011;61073;54.260;20.816;2023-10-13T18:18:27;26.80;;;11.40;;
72929;SDS011;61073;54.260;20.816;2023-10-13T18:21:02;22.50;;;11.07;;
72929;SDS011;61073;54.260;20.816;2023-10-13T18:23:34;24.87;;;10.87;;
72929;SDS011;61073;54.260;20.816;2023-10-13T18:26:02;21.60;;;10.93;;
72929;SDS011;61073;54.260;20.816;2023-10-13T18:28:29;22.63;;;11.10;;
72929;SDS011;61073;54.260;20.816;2023-10-13T18:31:00;23.65;;;12.00;;
72929;SDS011;61073;54.260;20.816;2023-10-13T18:33:31;19.67;;;10.98;;
72929;SDS011;61073;54.260;20.816;2023-10-13T18:38:42;18.98;;;10.88;;
72929;SDS011;61073;54.260;20.816;2023-10-13T18:41:09;21.73;;;11.05;;
72929;SDS011;61073;54.260;20.816;2023-10-13T18:43:41;21.45;;;11.00;;
72929;SDS011;61073;54.260;20.816;2023-10-13T18:46:09;21.90;;;10.57;;
72929;SDS011;61073;54.260;20.816;2023-10-13T18:48:36;21.83;;;11.07;;
72929;SDS011;61073;54.260;20.816;2023-10-13T18:51:04;19.65;;;11.10;;
72929;SDS011;61073;54.260;20.816;2023-10-13T18:53:32;16.53;;;10.47;;
72929;SDS011;61073;54.260;20.816;2023-10-13T18:58:46;17.23;;;10.93;;
72929;SDS011;61073;54.260;20.816;2023-10-13T19:01:29;17.45;;;9.85;;
72929;SDS011;61073;54.260;20.816;2023-10-13T19:04:00;16.67;;;9.67;;
72929;SDS011;61073;54.260;20.816;2023-10-13T19:06:28;19.70;;;10.38;;
72929;SDS011;61073;54.260;20.816;2023-10-13T19:08:56;17.98;;;10.90;;
72929;SDS011;61073;54.260;20.816;2023-10-13T19:11:25;18.53;;;10.93;;
72929;SDS011;61073;54.260;20.816;2023-10-13T19:13:52;18.25;;;10.65;;
72929;SDS011;61073;54.260;20.816;2023-10-13T19:16:19;19.58;;;10.85;;
72929;SDS011;61073;54.260;20.816;2023-10-13T19:18:51;19.08;;;10.07;;
72929;SDS011;61073;54.260;20.816;2023-10-13T19:21:19;20.33;;;10.82;;
72929;SDS011;61073;54.260;20.816;2023-10-13T19:23:52;19.07;;;12.27;;
72929;SDS011;61073;54.260;20.816;2023-10-13T19:26:21;17.92;;;9.95;;
72929;SDS011;61073;54.260;20.816;2023-10-13T19:28:50;18.45;;;10.38;;
72929;SDS011;61073;54.260;20.816;2023-10-13T19:31:20;17.48;;;9.95;;
72929;SDS011;61073;54.260;20.816;2023-10-13T19:33:50;20.25;;;10.25;;
72929;SDS011;61073;54.260;20.816;2023-10-13T19:36:18;13.98;;;9.82;;
72929;SDS011;61073;54.260;20.816;2023-10-13T19:38:49;16.88;;;10.85;;
72929;SDS011;61073;54.260;20.816;2023-10-13T19:41:21;18.83;;;10.48;;
72929;SDS011;61073;54.260;20.816;2023-10-13T19:43:52;14.10;;;9.27;;
72929;SDS011;61073;54.260;20.816;2023-10-13T19:46:23;17.02;;;10.95;;
72929;SDS011;61073;54.260;20.816;2023-10-13T19:48:51;18.98;;;9.82;;
72929;SDS011;61073;54.260;20.816;2023-10-13T19:51:19;19.23;;;10.48;;
72929;SDS011;61073;54.260;20.816;2023-10-13T19:53:52;19.65;;;10.43;;
72929;SDS011;61073;54.260;20.816;2023-10-13T19:56:20;16.55;;;10.38;;
72929;SDS011;61073;54.260;20.816;2023-10-13T19:58:48;17.13;;;9.98;;
72929;SDS011;61073;54.260;20.816;2023-10-13T20:01:20;17.10;;;10.23;;
72929;SDS011;61073;54.260;20.816;2023-10-13T20:03:51;15.55;;;10.30;;
72929;SDS011;61073;54.260;20.816;2023-10-13T20:08:52;15.77;;;9.82;;
72929;SDS011;61073;54.260;20.816;2023-10-13T20:11:20;17.38;;;10.18;;
72929;SDS011;61073;54.260;20.816;2023-10-13T20:13:51;19.67;;;10.65;;
72929;SDS011;61073;54.260;20.816;2023-10-13T20:16:22;17.00;;;10.15;;
72929;SDS011;61073;54.260;20.816;2023-10-13T20:18:50;16.70;;;10.32;;
72929;SDS011;61073;54.260;20.816;2023-10-13T20:21:24;17.58;;;10.38;;
72929;SDS011;61073;54.260;20.816;2023-10-13T20:23:53;17.03;;;10.10;;
72929;SDS011;61073;54.260;20.816;2023-10-13T20:26:21;15.57;;;10.10;;
72929;SDS011;61073;54.260;20.816;2023-10-13T20:28:48;15.95;;;10.32;;
72929;SDS011;61073;54.260;20.816;2023-10-13T20:31:15;18.13;;;10.48;;
72929;SDS011;61073;54.260;20.816;2023-10-13T20:33:42;14.50;;;9.88;;
72929;SDS011;61073;54.260;20.816;2023-10-13T20:36:12;15.90;;;10.30;;
72929;SDS011;61073;54.260;20.816;2023-10-13T20:38:44;17.65;;;9.60;;
72929;SDS011;61073;54.260;20.816;2023-10-13T20:41:16;15.25;;;9.63;;
72929;SDS011;61073;54.260;20.816;2023-10-13T20:43:51;19.15;;;9.80;;
72929;SDS011;61073;54.260;20.816;2023-10-13T20:46:21;16.77;;;9.52;;
72929;SDS011;61073;54.260;20.816;2023-10-13T20:48:48;13.55;;;9.38;;
72929;SDS011;61073;54.260;20.816;2023-10-13T20:51:15;15.77;;;9.88;;
72929;SDS011;61073;54.260;20.816;2023-10-13T20:53:42;17.00;;;8.93;;
72929;SDS011;61073;54.260;20.816;2023-10-13T20:56:10;14.05;;;9.13;;
72929;SDS011;61073;54.260;20.816;2023-10-13T20:58:44;13.68;;;8.95;;
72929;SDS011;61073;54.260;20.816;2023-10-13T21:01:22;12.70;;;8.70;;
72929;SDS011;61073;54.260;20.816;2023-10-13T21:03:49;12.00;;;8.40;;
72929;SDS011;61073;54.260;20.816;2023-10-13T21:06:17;13.13;;;7.90;;
72929;SDS011;61073;54.260;20.816;2023-10-13T21:08:46;12.57;;;8.35;;
72929;SDS011;61073;54.260;20.816;2023-10-13T21:11:14;12.10;;;8.02;;
72929;SDS011;61073;54.260;20.816;2023-10-13T21:13:41;14.32;;;8.32;;
72929;SDS011;61073;54.260;20.816;2023-10-13T21:16:09;11.50;;;7.68;;
72929;SDS011;61073;54.260;20.816;2023-10-13T21:18:36;13.93;;;7.82;;
72929;SDS011;61073;54.260;20.816;2023-10-13T21:21:04;15.27;;;7.50;;
72929;SDS011;61073;54.260;20.816;2023-10-13T21:23:32;13.53;;;8.00;;
72929;SDS011;61073;54.260;20.816;2023-10-13T21:25:59;12.80;;;7.90;;
72929;SDS011;61073;54.260;20.816;2023-10-13T21:28:27;12.45;;;6.38;;
72929;SDS011;61073;54.260;20.816;2023-10-13T21:33:21;15.43;;;5.90;;
72929;SDS011;61073;54.260;20.816;2023-10-13T21:35:48;17.05;;;7.57;;
72929;SDS011;61073;54.260;20.816;2023-10-13T21:38:15;12.30;;;7.10;;
72929;SDS011;61073;54.260;20.816;2023-10-13T21:40:43;13.18;;;7.40;;
72929;SDS011;61073;54.260;20.816;2023-10-13T21:43:10;9.70;;;6.82;;
72929;SDS011;61073;54.260;20.816;2023-10-13T21:45:37;11.70;;;7.13;;
72929;SDS011;61073;54.260;20.816;2023-10-13T21:48:04;9.85;;;6.45;;
72929;SDS011;61073;54.260;20.816;2023-10-13T21:50:35;10.45;;;6.60;;
72929;SDS011;61073;54.260;20.816;2023-10-13T21:53:02;13.57;;;7.80;;
72929;SDS011;61073;54.260;20.816;2023-10-13T21:55:29;11.83;;;7.07;;
72929;SDS011;61073;54.260;20.816;2023-10-13T21:57:56;11.63;;;6.38;;
72929;SDS011;61073;54.260;20.816;2023-10-13T22:00:23;11.35;;;6.90;;
72929;SDS011;61073;54.260;20.816;2023-10-13T22:02:53;12.98;;;6.68;;
72929;SDS011;61073;54.260;20.816;2023-10-13T22:05:27;12.63;;;7.00;;
72929;SDS011;61073;54.260;20.816;2023-10-13T22:07:56;12.23;;;6.65;;
72929;SDS011;61073;54.260;20.816;2023-10-13T22:10:24;12.07;;;6.30;;
72929;SDS011;61073;54.260;20.816;2023-10-13T22:12:51;9.30;;;5.57;;
